Time;durP1;ratioP1;P1;durP2;ratioP2;P2;SDS_P1;SDS_P2;PMS_P1;PMS_P2;Temp;Humidity;BMP_temperature;BMP_pressure;BME280_temperature;BME280_humidity;BME280_pressure;Samples;Min_cycle;Max_cycle;Signal;HPM_P1;HPM_P2
2024/01/30 00:00:06;;;;;;;14.27;9.65;;;;;;;;;;5032342;28;20225;-69
2024/01/30 00:02:32;;;;;;;15.68;10.20;;;;;;;;;;5032342;28;20596;-69
2024/01/30 00:05:00;;;;;;;15.25;10.20;;;;;;;;;;5032473;28;20219;-69
2024/01/30 00:07:26;;;;;;;16.52;10.75;;;;;;;;;;5032528;28;20226;-69
2024/01/30 00:09:53;;;;;;;16.80;10.27;;;;;;;;;;5032550;28;20198;-70
2024/01/30 00:12:19;;;;;;;18.38;10.43;;;;;;;;;;5033032;28;20267;-70
2024/01/30 00:14:45;;;;;;;13.77;9.98;;;;;;;;;;5032330;28;20213;-70
2024/01/30 00:17:11;;;;;;;12.85;9.30;;;;;;;;;;5032477;28;20286;-69
2024/01/30 00:19:38;;;;;;;12.52;9.65;;;;;;;;;;5031902;28;20263;-68
2024/01/30 00:22:04;;;;;;;19.60;9.82;;;;;;;;;;5032460;28;20198;-70
2024/01/30 00:24:30;;;;;;;13.73;9.90;;;;;;;;;;5031859;28;20686;-68
2024/01/30 00:26:57;;;;;;;15.20;9.82;;;;;;;;;;5032457;28;20221;-68
2024/01/30 00:29:25;;;;;;;13.38;9.68;;;;;;;;;;5032266;28;20198;-68
2024/01/30 00:31:52;;;;;;;16.13;9.75;;;;;;;;;;5032293;28;20693;-68
2024/01/30 00:34:18;;;;;;;18.13;10.02;;;;;;;;;;5032381;28;20232;-68
2024/01/30 00:36:45;;;;;;;12.82;10.32;;;;;;;;;;5032236;28;20218;-70
2024/01/30 00:39:12;;;;;;;13.88;9.80;;;;;;;;;;5031716;28;20260;-68
2024/01/30 00:41:39;;;;;;;17.27;9.98;;;;;;;;;;5032236;28;20259;-68
2024/01/30 00:44:05;;;;;;;13.57;9.63;;;;;;;;;;5036371;28;20210;-68
2024/01/30 00:46:31;;;;;;;14.82;9.27;;;;;;;;;;5036625;28;20224;-68
2024/01/30 00:48:58;;;;;;;11.57;9.20;;;;;;;;;;5036120;28;20197;-68
2024/01/30 00:51:24;;;;;;;11.88;8.20;;;;;;;;;;5036718;28;20244;-68
2024/01/30 00:53:51;;;;;;;10.15;8.32;;;;;;;;;;5035864;28;20224;-68
2024/01/30 00:56:18;;;;;;;13.52;9.77;;;;;;;;;;5036090;28;20230;-69
2024/01/30 00:58:45;;;;;;;11.93;9.73;;;;;;;;;;5036107;28;20201;-69
2024/01/30 01:01:11;;;;;;;19.83;10.48;;;;;;;;;;5036573;28;20271;-69
2024/01/30 01:03:37;;;;;;;15.80;9.95;;;;;;;;;;5036144;28;20201;-68
2024/01/30 01:06:04;;;;;;;12.88;9.70;;;;;;;;;;5036257;28;20272;-68
2024/01/30 01:08:30;;;;;;;17.80;11.27;;;;;;;;;;5035961;28;20202;-68
2024/01/30 01:10:56;;;;;;;14.82;11.10;;;;;;;;;;5035962;28;20260;-68
2024/01/30 01:13:24;;;;;;;17.85;10.85;;;;;;;;;;5036170;28;20210;-68
2024/01/30 01:15:50;;;;;;;19.55;11.48;;;;;;;;;;5037123;28;20230;-69
2024/01/30 01:18:16;;;;;;;19.73;11.55;;;;;;;;;;5037164;28;20205;-69
2024/01/30 01:20:43;;;;;;;15.38;11.10;;;;;;;;;;5037081;28;20702;-69
2024/01/30 01:23:09;;;;;;;22.52;11.50;;;;;;;;;;5037059;28;20740;-69
2024/01/30 01:25:35;;;;;;;20.50;11.30;;;;;;;;;;5037746;28;20710;-69
2024/01/30 01:28:01;;;;;;;18.23;11.50;;;;;;;;;;5037334;28;20728;-69
2024/01/30 01:30:30;;;;;;;21.80;11.52;;;;;;;;;;5037831;28;20233;-69
2024/01/30 01:32:56;;;;;;;16.02;10.80;;;;;;;;;;5037094;28;20233;-69
2024/01/30 01:35:24;;;;;;;14.98;10.57;;;;;;;;;;5036653;28;20297;-68
2024/01/30 01:37:54;;;;;;;20.80;11.48;;;;;;;;;;5034831;28;20271;-69
2024/01/30 01:40:21;;;;;;;17.83;10.43;;;;;;;;;;5034957;28;20284;-69
2024/01/30 01:42:47;;;;;;;16.65;11.40;;;;;;;;;;5035007;28;20348;-69
2024/01/30 01:45:13;;;;;;;16.58;11.13;;;;;;;;;;5035025;28;20623;-69
2024/01/30 01:47:41;;;;;;;17.50;10.77;;;;;;;;;;5034961;28;20198;-69
2024/01/30 01:50:07;;;;;;;18.17;10.98;;;;;;;;;;5034588;28;20201;-69
2024/01/30 01:52:34;;;;;;;17.27;11.30;;;;;;;;;;5051637;28;20255;-68
2024/01/30 01:55:00;;;;;;;21.35;10.80;;;;;;;;;;5053295;28;20549;-68
2024/01/30 01:57:26;;;;;;;15.25;10.73;;;;;;;;;;5054713;28;20279;-68
2024/01/30 01:59:53;;;;;;;18.27;11.32;;;;;;;;;;5054497;28;20225;-68
2024/01/30 02:02:20;;;;;;;16.83;10.85;;;;;;;;;;5054968;28;20250;-68
2024/01/30 02:04:47;;;;;;;13.20;10.20;;;;;;;;;;5054457;28;20669;-68
2024/01/30 02:07:14;;;;;;;17.88;10.68;;;;;;;;;;5054491;28;20573;-68
2024/01/30 02:09:40;;;;;;;16.52;10.13;;;;;;;;;;5054494;28;20209;-68
2024/01/30 02:12:07;;;;;;;14.50;10.63;;;;;;;;;;5054624;28;20666;-68
2024/01/30 02:14:33;;;;;;;14.63;10.25;;;;;;;;;;5054116;28;20575;-68
2024/01/30 02:16:59;;;;;;;12.70;9.40;;;;;;;;;;5054561;28;20224;-68
2024/01/30 02:19:25;;;;;;;17.45;10.80;;;;;;;;;;5053776;28;20618;-68
2024/01/30 02:21:53;;;;;;;14.00;9.77;;;;;;;;;;5054241;28;20599;-68
2024/01/30 02:24:19;;;;;;;14.48;10.02;;;;;;;;;;5054076;28;20267;-68
2024/01/30 02:26:46;;;;;;;15.32;10.18;;;;;;;;;;5054398;28;20225;-68
2024/01/30 02:29:12;;;;;;;18.35;9.95;;;;;;;;;;5054057;28;20609;-68
2024/01/30 02:31:38;;;;;;;13.93;9.55;;;;;;;;;;5054268;28;20597;-68
2024/01/30 02:34:05;;;;;;;12.82;9.55;;;;;;;;;;5053571;28;20581;-68
2024/01/30 02:36:31;;;;;;;13.85;9.63;;;;;;;;;;5054048;28;20253;-68
2024/01/30 02:38:58;;;;;;;13.30;8.98;;;;;;;;;;5053725;28;20254;-69
2024/01/30 02:41:25;;;;;;;16.05;9.68;;;;;;;;;;5054112;28;20275;-69
2024/01/30 02:43:50;;;;;;;14.73;9.30;;;;;;;;;;5053869;28;20204;-69
2024/01/30 02:46:16;;;;;;;11.63;9.13;;;;;;;;;;5053922;28;20251;-68
2024/01/30 02:48:42;;;;;;;13.60;9.50;;;;;;;;;;5053857;28;20277;-68
2024/01/30 02:51:09;;;;;;;11.82;9.85;;;;;;;;;;5054163;28;20263;-68
2024/01/30 02:53:35;;;;;;;13.23;8.93;;;;;;;;;;5053588;28;20201;-68
2024/01/30 02:56:03;;;;;;;14.25;9.60;;;;;;;;;;5053929;28;20232;-68
2024/01/30 02:58:29;;;;;;;11.55;9.10;;;;;;;;;;5053953;28;20205;-68
2024/01/30 03:00:55;;;;;;;12.40;8.95;;;;;;;;;;5053393;28;20224;-68
2024/01/30 03:03:22;;;;;;;16.13;9.73;;;;;;;;;;5053501;28;20808;-68
2024/01/30 03:05:48;;;;;;;14.43;8.80;;;;;;;;;;5053383;28;20217;-69
2024/01/30 03:08:15;;;;;;;13.43;8.77;;;;;;;;;;5053634;28;20205;-68
2024/01/30 03:10:41;;;;;;;12.63;8.98;;;;;;;;;;5053293;28;20332;-68
2024/01/30 03:13:09;;;;;;;10.90;8.65;;;;;;;;;;5053061;28;20209;-68
2024/01/30 03:15:35;;;;;;;10.55;8.60;;;;;;;;;;5052947;28;20621;-69
2024/01/30 03:18:01;;;;;;;13.93;8.95;;;;;;;;;;5052898;28;20662;-69
2024/01/30 03:20:28;;;;;;;11.55;9.05;;;;;;;;;;5052762;28;20228;-69
2024/01/30 03:22:54;;;;;;;14.88;9.40;;;;;;;;;;5053325;28;20207;-69
2024/01/30 03:25:21;;;;;;;14.63;9.25;;;;;;;;;;5053114;28;20263;-69
2024/01/30 03:27:47;;;;;;;16.20;9.50;;;;;;;;;;5053323;28;20205;-69
2024/01/30 03:30:15;;;;;;;12.60;9.25;;;;;;;;;;5052749;28;20201;-69
2024/01/30 03:32:41;;;;;;;12.80;9.43;;;;;;;;;;5053178;28;20209;-69
2024/01/30 03:35:08;;;;;;;13.80;10.00;;;;;;;;;;5053239;28;20209;-69
2024/01/30 03:37:34;;;;;;;15.45;9.80;;;;;;;;;;5053067;28;20323;-69
2024/01/30 03:40:00;;;;;;;13.68;9.57;;;;;;;;;;5052617;28;20196;-69
2024/01/30 03:42:27;;;;;;;14.45;9.45;;;;;;;;;;5052954;28;20630;-69
2024/01/30 03:44:53;;;;;;;16.42;9.85;;;;;;;;;;5052990;28;20205;-69
2024/01/30 03:47:21;;;;;;;14.48;9.95;;;;;;;;;;5052902;28;20228;-69
2024/01/30 03:49:47;;;;;;;16.60;9.90;;;;;;;;;;5052749;28;20205;-69
2024/01/30 03:52:13;;;;;;;17.38;10.23;;;;;;;;;;5052549;28;20284;-69
2024/01/30 03:54:40;;;;;;;13.88;9.50;;;;;;;;;;5052259;28;20722;-69
2024/01/30 03:57:06;;;;;;;15.98;9.80;;;;;;;;;;5052654;28;20282;-69
2024/01/30 03:59:32;;;;;;;16.48;9.95;;;;;;;;;;5052325;28;20291;-69
2024/01/30 04:01:58;;;;;;;15.45;10.23;;;;;;;;;;5052381;28;20739;-69
2024/01/30 04:04:26;;;;;;;18.52;9.52;;;;;;;;;;5052459;28;20205;-69
2024/01/30 04:06:52;;;;;;;18.08;9.82;;;;;;;;;;5052136;28;20225;-69
2024/01/30 04:09:18;;;;;;;20.10;9.50;;;;;;;;;;5052156;28;20259;-69
2024/01/30 04:11:45;;;;;;;18.83;9.45;;;;;;;;;;5052336;28;20201;-69
2024/01/30 04:14:11;;;;;;;15.63;9.55;;;;;;;;;;5051847;28;20238;-69
2024/01/30 04:16:37;;;;;;;18.80;9.95;;;;;;;;;;5051699;28;20225;-69
2024/01/30 04:19:04;;;;;;;18.15;9.90;;;;;;;;;;5052157;28;20205;-69
2024/01/30 04:21:31;;;;;;;23.15;10.65;;;;;;;;;;5052315;28;20221;-69
2024/01/30 04:23:58;;;;;;;16.30;10.13;;;;;;;;;;5051960;28;20300;-69
2024/01/30 04:26:24;;;;;;;17.20;10.50;;;;;;;;;;5052027;28;20228;-69
2024/01/30 04:28:50;;;;;;;23.50;10.50;;;;;;;;;;5051965;28;20240;-69
2024/01/30 04:31:16;;;;;;;16.48;9.93;;;;;;;;;;5052493;28;20197;-69
2024/01/30 04:33:43;;;;;;;18.95;10.18;;;;;;;;;;5052102;28;20212;-69
2024/01/30 04:36:11;;;;;;;18.40;10.23;;;;;;;;;;5052377;28;20259;-69
2024/01/30 04:38:38;;;;;;;20.52;10.38;;;;;;;;;;5052376;28;20205;-69
2024/01/30 04:41:04;;;;;;;19.15;11.02;;;;;;;;;;5051832;28;20274;-69
2024/01/30 04:43:31;;;;;;;20.30;10.88;;;;;;;;;;5051850;28;20291;-69
2024/01/30 04:45:57;;;;;;;18.77;10.90;;;;;;;;;;5052122;28;20279;-69
2024/01/30 04:48:23;;;;;;;18.80;10.60;;;;;;;;;;5052009;28;20209;-69
2024/01/30 04:50:49;;;;;;;20.40;11.13;;;;;;;;;;5051811;28;20197;-69
2024/01/30 04:53:16;;;;;;;23.92;12.18;;;;;;;;;;5051735;28;20209;-69
2024/01/30 04:55:43;;;;;;;30.20;12.52;;;;;;;;;;5052196;28;20290;-69
2024/01/30 04:58:09;;;;;;;24.02;11.57;;;;;;;;;;5052202;28;20201;-69
2024/01/30 05:00:36;;;;;;;22.92;11.43;;;;;;;;;;5051818;28;20205;-69
2024/01/30 05:03:02;;;;;;;22.77;11.52;;;;;;;;;;5051793;28;20223;-69
2024/01/30 05:05:28;;;;;;;22.90;11.68;;;;;;;;;;5052302;28;20269;-69
2024/01/30 05:07:54;;;;;;;22.45;11.75;;;;;;;;;;5052224;28;20251;-69
2024/01/30 05:10:21;;;;;;;22.27;11.82;;;;;;;;;;5051528;28;20208;-69
2024/01/30 05:12:48;;;;;;;29.77;13.10;;;;;;;;;;5051764;28;20221;-69
2024/01/30 05:15:14;;;;;;;24.67;11.77;;;;;;;;;;5051396;28;20731;-69
2024/01/30 05:17:41;;;;;;;20.98;10.65;;;;;;;;;;5051775;28;20618;-69
2024/01/30 05:20:08;;;;;;;20.42;10.98;;;;;;;;;;5051426;28;20665;-69
2024/01/30 05:22:34;;;;;;;22.13;11.32;;;;;;;;;;5051428;28;20296;-69
2024/01/30 05:25:00;;;;;;;21.77;10.93;;;;;;;;;;5051872;28;20205;-69
2024/01/30 05:27:26;;;;;;;21.42;11.00;;;;;;;;;;5051814;28;20221;-69
2024/01/30 05:29:54;;;;;;;16.95;10.82;;;;;;;;;;5055155;28;20205;-69
2024/01/30 05:32:20;;;;;;;18.42;10.50;;;;;;;;;;5055615;28;20254;-69
2024/01/30 05:34:47;;;;;;;19.38;10.93;;;;;;;;;;5055084;28;20205;-69
2024/01/30 05:37:16;;;;;;;20.73;10.80;;;;;;;;;;5055246;28;20221;-69
2024/01/30 05:39:43;;;;;;;18.80;10.68;;;;;;;;;;5054886;28;20205;-69
2024/01/30 05:42:09;;;;;;;17.63;10.55;;;;;;;;;;5055093;28;20225;-69
2024/01/30 05:44:36;;;;;;;15.77;9.80;;;;;;;;;;5054871;28;20681;-69
2024/01/30 05:47:04;;;;;;;16.27;10.30;;;;;;;;;;5055214;28;20681;-70
2024/01/30 05:49:30;;;;;;;14.50;10.20;;;;;;;;;;5055247;28;20209;-69
2024/01/30 05:51:56;;;;;;;16.88;10.13;;;;;;;;;;5054822;28;20201;-68
2024/01/30 05:54:22;;;;;;;16.15;10.43;;;;;;;;;;5054721;28;20201;-69
2024/01/30 05:56:48;;;;;;;15.38;9.93;;;;;;;;;;5054883;28;20278;-69
2024/01/30 05:59:15;;;;;;;15.20;9.60;;;;;;;;;;5054700;28;20205;-70
2024/01/30 06:01:46;;;;;;;13.95;10.32;;;;;;;;;;5054768;28;20224;-70
2024/01/30 06:04:13;;;;;;;15.85;9.93;;;;;;;;;;5054561;28;20185;-68
2024/01/30 06:06:39;;;;;;;14.07;9.90;;;;;;;;;;5054607;28;20932;-68
2024/01/30 06:09:06;;;;;;;16.15;10.68;;;;;;;;;;5054086;28;20232;-69
2024/01/30 06:11:33;;;;;;;15.40;10.20;;;;;;;;;;5054347;28;20201;-69
2024/01/30 06:13:59;;;;;;;14.77;10.00;;;;;;;;;;5053943;28;20240;-68
2024/01/30 06:16:29;;;;;;;17.88;10.18;;;;;;;;;;5054278;28;20225;-69
2024/01/30 06:18:55;;;;;;;14.63;10.38;;;;;;;;;;5054020;28;20205;-69
2024/01/30 06:21:23;;;;;;;16.77;10.20;;;;;;;;;;5054327;28;20565;-69
2024/01/30 06:23:49;;;;;;;20.15;10.57;;;;;;;;;;5054134;28;20255;-69
2024/01/30 06:26:15;;;;;;;16.48;10.05;;;;;;;;;;5054213;28;20217;-69
2024/01/30 06:28:41;;;;;;;18.02;10.20;;;;;;;;;;5053843;28;20205;-68
2024/01/30 06:31:08;;;;;;;19.15;10.00;;;;;;;;;;5054734;28;20205;-68
2024/01/30 06:33:34;;;;;;;16.40;10.00;;;;;;;;;;5054616;28;20665;-69
2024/01/30 06:36:00;;;;;;;16.48;10.30;;;;;;;;;;5054529;28;20217;-61
2024/01/30 06:38:28;;;;;;;21.88;12.13;;;;;;;;;;5054252;28;20209;-61
2024/01/30 06:40:54;;;;;;;22.10;11.45;;;;;;;;;;5052837;28;20258;-62
2024/01/30 06:43:20;;;;;;;20.45;11.20;;;;;;;;;;5053415;28;20725;-61
2024/01/30 06:45:46;;;;;;;16.83;10.68;;;;;;;;;;5053615;28;20732;-61
2024/01/30 06:48:13;;;;;;;17.98;10.90;;;;;;;;;;5053627;28;20734;-62
2024/01/30 06:50:39;;;;;;;14.80;10.93;;;;;;;;;;5053721;28;20205;-61
2024/01/30 06:53:05;;;;;;;18.60;11.20;;;;;;;;;;5053624;28;20197;-61
2024/01/30 06:55:33;;;;;;;17.95;11.23;;;;;;;;;;5053775;28;20286;-61
2024/01/30 06:57:59;;;;;;;16.27;10.57;;;;;;;;;;5053614;28;20201;-61
2024/01/30 07:00:25;;;;;;;16.95;11.88;;;;;;;;;;5053508;28;20354;-61
2024/01/30 07:02:51;;;;;;;19.45;11.98;;;;;;;;;;5053007;28;20286;-61
2024/01/30 07:05:18;;;;;;;17.73;11.48;;;;;;;;;;5053543;28;20200;-61
2024/01/30 07:07:44;;;;;;;15.32;10.93;;;;;;;;;;5053278;28;20206;-61
2024/01/30 07:10:10;;;;;;;17.67;11.68;;;;;;;;;;5052998;28;20205;-61
2024/01/30 07:12:38;;;;;;;15.30;10.70;;;;;;;;;;5048005;28;20209;-63
2024/01/30 07:15:07;;;;;;;19.17;13.23;;;;;;;;;;5042215;28;20351;-63
2024/01/30 07:17:34;;;;;;;20.88;12.32;;;;;;;;;;5047846;28;20288;-63
2024/01/30 07:20:00;;;;;;;16.35;11.50;;;;;;;;;;5047166;28;20619;-63
2024/01/30 07:22:26;;;;;;;17.60;11.80;;;;;;;;;;5047456;28;20229;-61
2024/01/30 07:24:52;;;;;;;24.63;12.70;;;;;;;;;;5047112;28;20235;-63
2024/01/30 07:27:19;;;;;;;18.63;11.55;;;;;;;;;;5047753;28;20221;-63
2024/01/30 07:29:46;;;;;;;17.38;11.65;;;;;;;;;;5047501;28;20251;-63
2024/01/30 07:32:12;;;;;;;21.50;12.05;;;;;;;;;;5036102;28;20602;-63
2024/01/30 07:34:39;;;;;;;19.25;12.18;;;;;;;;;;5027537;28;20201;-63
2024/01/30 07:37:08;;;;;;;20.83;12.68;;;;;;;;;;5026756;28;20222;-63
2024/01/30 07:39:34;;;;;;;19.98;12.50;;;;;;;;;;5026985;28;20741;-64
2024/01/30 07:42:00;;;;;;;19.55;12.18;;;;;;;;;;5027119;28;20299;-66
2024/01/30 07:44:27;;;;;;;17.65;11.55;;;;;;;;;;5027061;28;20647;-61
2024/01/30 07:46:54;;;;;;;17.88;12.02;;;;;;;;;;5026557;28;20279;-61
2024/01/30 07:49:21;;;;;;;20.48;12.68;;;;;;;;;;5027097;28;20765;-60
2024/01/30 07:51:47;;;;;;;22.63;13.07;;;;;;;;;;5043760;28;20220;-60
2024/01/30 07:54:13;;;;;;;22.23;13.27;;;;;;;;;;5043767;28;20773;-60
2024/01/30 07:56:40;;;;;;;22.25;14.65;;;;;;;;;;5031425;28;20225;-60
2024/01/30 07:59:06;;;;;;;25.88;15.05;;;;;;;;;;5028109;28;20209;-60
2024/01/30 08:01:32;;;;;;;25.65;16.05;;;;;;;;;;5045213;28;20225;-62
2024/01/30 08:04:00;;;;;;;28.10;16.75;;;;;;;;;;5035771;28;20252;-64
2024/01/30 08:06:26;;;;;;;29.20;16.42;;;;;;;;;;5026119;28;20222;-62
2024/01/30 08:08:53;;;;;;;31.85;16.52;;;;;;;;;;5025811;28;20232;-62
2024/01/30 08:11:20;;;;;;;28.63;16.92;;;;;;;;;;5026346;28;20209;-62
2024/01/30 08:13:46;;;;;;;28.58;16.50;;;;;;;;;;5029963;28;20678;-63
2024/01/30 08:16:13;;;;;;;28.33;16.77;;;;;;;;;;5031733;28;20581;-62
2024/01/30 08:18:39;;;;;;;33.60;16.88;;;;;;;;;;5032696;28;20209;-62
2024/01/30 08:21:07;;;;;;;28.42;15.73;;;;;;;;;;5044122;28;20205;-62
2024/01/30 08:23:33;;;;;;;30.45;16.08;;;;;;;;;;5045057;28;20240;-62
2024/01/30 08:25:59;;;;;;;31.73;16.25;;;;;;;;;;5045173;28;20221;-63
2024/01/30 08:28:26;;;;;;;31.98;16.48;;;;;;;;;;5045294;28;20217;-62
2024/01/30 08:30:52;;;;;;;32.30;15.30;;;;;;;;;;5034361;28;20218;-61
2024/01/30 08:33:18;;;;;;;31.77;15.95;;;;;;;;;;5025136;28;20221;-61
2024/01/30 08:35:44;;;;;;;27.88;15.90;;;;;;;;;;5025767;28;20279;-60
2024/01/30 08:38:12;;;;;;;27.33;15.05;;;;;;;;;;5025822;28;20283;-61
2024/01/30 08:40:39;;;;;;;30.55;15.70;;;;;;;;;;5040988;28;20359;-61
2024/01/30 08:43:05;;;;;;;28.02;14.80;;;;;;;;;;5045083;28;20229;-60
2024/01/30 08:45:31;;;;;;;30.80;16.15;;;;;;;;;;5044995;28;20229;-60
2024/01/30 08:47:57;;;;;;;32.25;15.02;;;;;;;;;;5045056;28;20701;-60
2024/01/30 08:50:24;;;;;;;27.55;15.13;;;;;;;;;;5044957;28;20674;-59
2024/01/30 08:52:50;;;;;;;32.53;15.60;;;;;;;;;;5045778;28;20723;-59
2024/01/30 08:55:17;;;;;;;33.03;15.32;;;;;;;;;;5045009;28;20290;-60
2024/01/30 08:57:44;;;;;;;26.67;14.82;;;;;;;;;;5044918;28;20775;-60
2024/01/30 09:00:11;;;;;;;25.73;14.88;;;;;;;;;;5044602;28;20263;-61
2024/01/30 09:02:37;;;;;;;27.40;14.20;;;;;;;;;;5044125;28;20225;-63
2024/01/30 09:05:03;;;;;;;22.30;14.20;;;;;;;;;;5048717;28;20220;-62
2024/01/30 09:07:30;;;;;;;23.25;14.63;;;;;;;;;;5047838;28;20258;-63
2024/01/30 09:09:56;;;;;;;23.73;13.32;;;;;;;;;;5028506;28;20674;-61
2024/01/30 09:12:23;;;;;;;21.15;12.98;;;;;;;;;;5029132;28;20213;-61
2024/01/30 09:14:50;;;;;;;23.23;12.55;;;;;;;;;;5028070;28;20792;-63
2024/01/30 09:17:16;;;;;;;19.67;12.90;;;;;;;;;;5030403;28;20784;-62
2024/01/30 09:19:42;;;;;;;19.08;12.43;;;;;;;;;;5048174;28;20209;-62
2024/01/30 09:22:08;;;;;;;22.70;12.50;;;;;;;;;;5035898;28;20680;-61
2024/01/30 09:24:35;;;;;;;20.05;12.15;;;;;;;;;;5042071;28;20231;-61
2024/01/30 09:27:01;;;;;;;16.35;11.70;;;;;;;;;;5046235;28;20225;-62
2024/01/30 09:29:28;;;;;;;15.88;11.95;;;;;;;;;;5047369;28;20201;-61
2024/01/30 09:31:55;;;;;;;14.23;10.68;;;;;;;;;;5031115;28;20279;-62
2024/01/30 09:34:21;;;;;;;16.65;11.23;;;;;;;;;;5037651;28;20274;-62
2024/01/30 09:36:47;;;;;;;16.75;11.05;;;;;;;;;;5047798;28;20229;-60
2024/01/30 09:39:14;;;;;;;18.90;11.63;;;;;;;;;;5034172;28;20240;-60
2024/01/30 09:41:45;;;;;;;16.63;10.40;;;;;;;;;;5028541;28;20217;-62
2024/01/30 09:44:12;;;;;;;18.58;11.27;;;;;;;;;;5035882;28;20236;-62
2024/01/30 09:46:40;;;;;;;15.63;10.82;;;;;;;;;;5036954;28;20250;-62
2024/01/30 09:49:07;;;;;;;15.25;10.48;;;;;;;;;;5032390;28;20213;-61
2024/01/30 09:51:33;;;;;;;14.30;10.50;;;;;;;;;;5048342;28;20286;-60
2024/01/30 09:54:00;;;;;;;14.55;10.10;;;;;;;;;;5048352;28;20224;-61
2024/01/30 09:56:26;;;;;;;15.95;10.63;;;;;;;;;;5048835;28;20445;-62
2024/01/30 09:58:52;;;;;;;15.75;10.38;;;;;;;;;;5048064;28;20213;-63
2024/01/30 10:01:19;;;;;;;20.08;10.93;;;;;;;;;;5047934;28;20262;-61
2024/01/30 10:03:47;;;;;;;18.52;9.70;;;;;;;;;;5039661;28;20657;-62
2024/01/30 10:06:13;;;;;;;13.68;10.02;;;;;;;;;;5040784;28;20290;-63
2024/01/30 10:08:39;;;;;;;15.45;9.45;;;;;;;;;;5037200;28;20581;-63
2024/01/30 10:11:06;;;;;;;13.07;9.20;;;;;;;;;;5028067;28;20572;-63
2024/01/30 10:13:33;;;;;;;14.40;9.55;;;;;;;;;;5027749;28;20249;-64
2024/01/30 10:16:02;;;;;;;13.93;10.00;;;;;;;;;;5026751;28;20237;-63
2024/01/30 10:18:28;;;;;;;12.30;9.48;;;;;;;;;;5029141;28;20614;-62
2024/01/30 10:20:56;;;;;;;12.60;9.95;;;;;;;;;;5040115;28;20213;-60
2024/01/30 10:23:22;;;;;;;13.70;9.00;;;;;;;;;;5027769;28;20320;-61
2024/01/30 10:25:48;;;;;;;11.88;8.63;;;;;;;;;;5043926;28;20224;-63
2024/01/30 10:28:15;;;;;;;13.52;9.40;;;;;;;;;;5041158;28;20206;-62
2024/01/30 10:30:41;;;;;;;12.45;8.95;;;;;;;;;;5027466;28;20224;-63
2024/01/30 10:33:07;;;;;;;12.55;8.60;;;;;;;;;;5044568;28;20621;-63
2024/01/30 10:35:34;;;;;;;14.43;9.20;;;;;;;;;;5040076;28;20230;-63
2024/01/30 10:38:01;;;;;;;12.50;8.52;;;;;;;;;;5027369;28;20206;-63
2024/01/30 10:40:28;;;;;;;11.25;8.02;;;;;;;;;;5043263;28;20212;-64
2024/01/30 10:42:56;;;;;;;12.18;8.98;;;;;;;;;;5046864;28;20225;-62
2024/01/30 10:45:22;;;;;;;14.10;10.40;;;;;;;;;;5046834;28;20213;-63
2024/01/30 10:47:49;;;;;;;18.13;10.55;;;;;;;;;;5043232;28;20214;-62
2024/01/30 10:50:16;;;;;;;11.27;9.30;;;;;;;;;;5037640;28;20218;-62
2024/01/30 10:52:43;;;;;;;18.33;10.32;;;;;;;;;;5046706;28;20258;-62
2024/01/30 10:55:11;;;;;;;18.42;9.85;;;;;;;;;;5031418;28;20255;-62
2024/01/30 10:57:38;;;;;;;28.95;13.48;;;;;;;;;;5047387;28;20213;-62
2024/01/30 11:00:10;;;;;;;59.22;19.95;;;;;;;;;;5039902;28;20210;-61
2024/01/30 11:02:37;;;;;;;39.33;19.05;;;;;;;;;;5023082;28;20213;-62
2024/01/30 11:05:05;;;;;;;19.95;12.90;;;;;;;;;;5044134;28;20214;-62
2024/01/30 11:07:31;;;;;;;18.13;10.18;;;;;;;;;;5027802;28;20641;-61
2024/01/30 11:10:01;;;;;;;26.98;14.85;;;;;;;;;;5044496;28;20733;-61
2024/01/30 11:12:29;;;;;;;17.63;11.40;;;;;;;;;;5046712;28;20213;-62
2024/01/30 11:15:05;;;;;;;14.13;10.23;;;;;;;;;;5047024;28;20308;-60
2024/01/30 11:17:45;;;;;;;23.50;10.43;;;;;;;;;;5047409;28;20276;-61
2024/01/30 11:20:12;;;;;;;26.73;10.48;;;;;;;;;;5028801;28;20206;-61
2024/01/30 11:22:41;;;;;;;13.20;9.43;;;;;;;;;;5026752;28;20241;-60
2024/01/30 11:25:11;;;;;;;19.58;9.60;;;;;;;;;;5026220;28;20217;-60
2024/01/30 11:27:39;;;;;;;18.60;9.98;;;;;;;;;;5025584;28;20209;-61
2024/01/30 11:30:07;;;;;;;16.35;10.02;;;;;;;;;;5024778;28;20217;-61
2024/01/30 11:32:34;;;;;;;18.23;9.20;;;;;;;;;;5024675;28;20631;-60
2024/01/30 11:35:00;;;;;;;16.48;9.63;;;;;;;;;;5032781;28;20596;-60
2024/01/30 11:37:27;;;;;;;16.33;9.45;;;;;;;;;;5025795;28;20648;-60
2024/01/30 11:39:54;;;;;;;13.35;8.35;;;;;;;;;;5041297;28;20247;-61
2024/01/30 11:42:20;;;;;;;21.60;10.00;;;;;;;;;;5044529;28;20212;-61
2024/01/30 11:44:48;;;;;;;12.98;8.98;;;;;;;;;;5044634;28;20221;-61
2024/01/30 11:47:15;;;;;;;10.98;8.07;;;;;;;;;;5033236;28;20233;-61
2024/01/30 11:49:41;;;;;;;16.83;8.57;;;;;;;;;;5024316;28;20347;-61
2024/01/30 11:52:08;;;;;;;15.70;8.52;;;;;;;;;;5024790;28;20542;-59
2024/01/30 11:54:34;;;;;;;11.00;8.45;;;;;;;;;;5024879;28;20210;-61
2024/01/30 11:57:00;;;;;;;11.35;8.13;;;;;;;;;;5024740;28;20233;-61
2024/01/30 11:59:26;;;;;;;14.07;8.40;;;;;;;;;;5024468;28;20210;-62
2024/01/30 12:01:54;;;;;;;17.65;7.97;;;;;;;;;;5024669;28;20205;-60
2024/01/30 12:04:20;;;;;;;10.57;7.93;;;;;;;;;;5023853;28;20283;-60
2024/01/30 12:06:51;;;;;;;9.88;8.02;;;;;;;;;;5024103;28;20279;-60
2024/01/30 12:09:17;;;;;;;11.10;7.78;;;;;;;;;;5023904;28;20212;-60
2024/01/30 12:11:44;;;;;;;13.50;8.20;;;;;;;;;;5024716;28;20214;-61
2024/01/30 12:14:11;;;;;;;14.68;8.48;;;;;;;;;;5027248;28;20255;-61
2024/01/30 12:16:37;;;;;;;17.38;9.10;;;;;;;;;;5025190;28;20229;-61
2024/01/30 12:19:04;;;;;;;14.60;9.13;;;;;;;;;;5043637;28;20204;-60
2024/01/30 12:21:31;;;;;;;16.20;9.52;;;;;;;;;;5044374;28;20208;-61
2024/01/30 12:23:57;;;;;;;19.77;9.35;;;;;;;;;;5044226;28;20235;-61
2024/01/30 12:26:24;;;;;;;16.77;9.80;;;;;;;;;;5044442;28;20220;-61
2024/01/30 12:28:50;;;;;;;15.50;9.27;;;;;;;;;;5043795;28;20215;-61
2024/01/30 12:31:17;;;;;;;22.15;10.07;;;;;;;;;;5043735;28;20319;-61
2024/01/30 12:33:43;;;;;;;17.42;10.10;;;;;;;;;;5023622;28;20260;-61
2024/01/30 12:36:12;;;;;;;16.27;10.60;;;;;;;;;;5024266;28;20291;-61
2024/01/30 12:38:38;;;;;;;18.23;9.80;;;;;;;;;;5024002;28;20210;-61
2024/01/30 12:41:04;;;;;;;16.92;10.18;;;;;;;;;;5023387;28;20670;-61
2024/01/30 12:43:31;;;;;;;15.23;9.55;;;;;;;;;;5043433;28;20286;-61
2024/01/30 12:45:58;;;;;;;18.80;9.98;;;;;;;;;;5039856;28;20290;-60
2024/01/30 12:48:24;;;;;;;12.20;8.82;;;;;;;;;;5044194;28;20263;-60
2024/01/30 12:50:50;;;;;;;12.80;9.73;;;;;;;;;;5043135;28;20205;-61
2024/01/30 12:53:18;;;;;;;17.17;9.32;;;;;;;;;;5044156;28;20196;-61
2024/01/30 12:55:44;;;;;;;19.52;9.57;;;;;;;;;;5044360;28;20229;-60
2024/01/30 12:58:11;;;;;;;22.10;9.45;;;;;;;;;;5044311;28;20213;-60
2024/01/30 13:00:37;;;;;;;14.75;8.90;;;;;;;;;;5043740;28;20205;-60
2024/01/30 13:03:04;;;;;;;19.90;9.40;;;;;;;;;;5043211;28;20209;-60
2024/01/30 13:05:30;;;;;;;20.92;9.60;;;;;;;;;;5043043;28;20228;-60
2024/01/30 13:07:57;;;;;;;17.05;8.82;;;;;;;;;;5038744;28;20206;-60
2024/01/30 13:10:24;;;;;;;16.65;8.70;;;;;;;;;;5023271;28;20210;-61
2024/01/30 13:12:51;;;;;;;17.42;8.88;;;;;;;;;;5024233;28;20213;-61
2024/01/30 13:15:17;;;;;;;12.45;8.73;;;;;;;;;;5024517;28;20225;-61
2024/01/30 13:17:46;;;;;;;21.65;10.57;;;;;;;;;;5024199;28;20210;-61
2024/01/30 13:20:16;;;;;;;19.85;9.38;;;;;;;;;;5033320;28;20628;-62
2024/01/30 13:22:42;;;;;;;22.10;10.15;;;;;;;;;;5043795;28;20776;-60
2024/01/30 13:25:09;;;;;;;20.30;8.52;;;;;;;;;;5043967;28;20717;-61
2024/01/30 13:27:36;;;;;;;11.70;7.95;;;;;;;;;;5044137;28;20706;-61
2024/01/30 13:30:03;;;;;;;15.88;8.55;;;;;;;;;;5043741;28;20579;-62
2024/01/30 13:32:29;;;;;;;16.92;8.15;;;;;;;;;;5043210;28;20304;-61
2024/01/30 13:34:56;;;;;;;20.65;8.93;;;;;;;;;;5043455;28;20275;-61
2024/01/30 13:37:22;;;;;;;12.30;7.78;;;;;;;;;;5043511;28;20713;-61
2024/01/30 13:39:48;;;;;;;15.88;8.27;;;;;;;;;;5034949;28;20213;-61
2024/01/30 13:42:15;;;;;;;14.80;9.20;;;;;;;;;;5024637;28;20208;-61
2024/01/30 13:44:43;;;;;;;20.85;8.23;;;;;;;;;;5023275;28;20233;-61
2024/01/30 13:47:09;;;;;;;16.80;7.90;;;;;;;;;;5023095;28;20270;-61
2024/01/30 13:49:36;;;;;;;14.38;8.20;;;;;;;;;;5024664;28;20264;-61
2024/01/30 13:52:03;;;;;;;16.52;8.02;;;;;;;;;;5035035;28;20751;-61
2024/01/30 13:54:30;;;;;;;12.40;8.82;;;;;;;;;;5044159;28;20213;-61
2024/01/30 13:56:56;;;;;;;17.95;7.90;;;;;;;;;;5028498;28;20301;-62
2024/01/30 13:59:25;;;;;;;14.43;7.93;;;;;;;;;;5027282;28;20976;-61
2024/01/30 14:01:53;;;;;;;14.32;7.43;;;;;;;;;;5045098;28;20232;-64
2024/01/30 14:04:19;;;;;;;11.35;7.07;;;;;;;;;;5046482;28;20232;-64
2024/01/30 14:06:45;;;;;;;10.75;7.20;;;;;;;;;;5046420;28;20221;-63
2024/01/30 14:09:11;;;;;;;16.30;7.80;;;;;;;;;;5030762;28;20205;-63
2024/01/30 14:11:38;;;;;;;11.13;7.82;;;;;;;;;;5042524;28;20278;-63
2024/01/30 14:14:04;;;;;;;15.20;8.02;;;;;;;;;;5046334;28;20221;-64
2024/01/30 14:16:30;;;;;;;11.55;7.55;;;;;;;;;;5047151;28;20232;-65
2024/01/30 14:18:58;;;;;;;11.50;7.53;;;;;;;;;;5044861;28;20208;-65